createdAt,value
2022-12-27T00:01:31.504Z,85.79
2022-12-27T00:03:58.059Z,86.09
2022-12-27T00:06:26.188Z,86.48
2022-12-27T00:08:53.071Z,86.64
2022-12-27T00:11:22.892Z,86.56
2022-12-27T00:13:49.928Z,86.78
2022-12-27T00:16:18.942Z,87.20
2022-12-27T00:18:46.493Z,87.39
2022-12-27T00:21:13.928Z,87.35
2022-12-27T00:23:43.459Z,87.49
2022-12-27T00:26:16.108Z,87.80
2022-12-27T00:28:43.141Z,87.53
2022-12-27T00:31:09.937Z,87.70
2022-12-27T00:33:38.678Z,87.93
2022-12-27T00:36:07.998Z,87.88
2022-12-27T00:38:35.557Z,88.38
2022-12-27T00:41:02.951Z,88.42
2022-12-27T00:43:29.633Z,88.75
2022-12-27T00:45:56.030Z,88.83
2022-12-27T00:48:22.825Z,88.98
2022-12-27T00:50:49.567Z,89.26
2022-12-27T00:53:16.029Z,89.35
2022-12-27T00:55:43.665Z,89.61
2022-12-27T00:58:10.247Z,89.69
2022-12-27T01:00:37.202Z,89.44
2022-12-27T01:03:03.916Z,89.61
2022-12-27T01:05:30.346Z,89.35
2022-12-27T01:07:56.734Z,89.75
2022-12-27T01:10:23.234Z,89.78
2022-12-27T01:12:49.660Z,89.60
2022-12-27T01:15:16.082Z,89.61
2022-12-27T01:17:42.480Z,89.41
2022-12-27T01:20:09.275Z,89.76
2022-12-27T01:22:35.722Z,89.76
2022-12-27T01:25:02.123Z,89.65
2022-12-27T01:27:28.621Z,89.81
2022-12-27T01:29:55.053Z,90.16
2022-12-27T01:32:21.652Z,90.09
2022-12-27T01:34:48.065Z,90.46
2022-12-27T01:37:14.404Z,90.94
2022-12-27T01:39:40.773Z,91.16
2022-12-27T01:42:34.895Z,92.01
2022-12-27T01:45:02.581Z,92.70
2022-12-27T01:47:45.707Z,92.82
2022-12-27T01:50:31.127Z,92.80
2022-12-27T01:53:19.398Z,92.79
2022-12-27T01:55:50.762Z,93.55
2022-12-27T01:58:42.504Z,93.99
2022-12-27T02:01:20.515Z,94.34
2022-12-27T02:03:53.798Z,94.13
2022-12-27T02:06:22.097Z,94.91
2022-12-27T02:09:05.561Z,94.99
2022-12-27T02:11:53.016Z,95.15
2022-12-27T02:14:33.256Z,94.85
2022-12-27T02:17:05.898Z,94.76
2022-12-27T02:20:06.799Z,94.27
2022-12-27T02:23:13.334Z,94.50
2022-12-27T02:26:05.573Z,94.75
2022-12-27T02:28:57.033Z,94.34
2022-12-27T02:31:41.273Z,94.28
2022-12-27T02:34:48.005Z,94.14
2022-12-27T02:37:14.782Z,94.23
2022-12-27T02:39:46.021Z,93.98
2022-12-27T02:42:34.216Z,93.98
2022-12-27T02:45:23.584Z,93.83
2022-12-27T02:48:08.531Z,94.04
2022-12-27T02:51:33.728Z,93.79
2022-12-27T02:54:35.541Z,93.85
2022-12-27T02:57:32.861Z,93.98
2022-12-27T03:00:23.884Z,94.47
2022-12-27T03:03:21.148Z,94.33
2022-12-27T03:06:27.807Z,94.49
2022-12-27T03:09:05.242Z,94.56
2022-12-27T03:12:01.704Z,94.85
2022-12-27T03:15:04.187Z,95.70
2022-12-27T03:17:48.010Z,95.07
2022-12-27T03:20:36.723Z,95.22
2022-12-27T03:23:22.900Z,95.33
2022-12-27T03:25:51.667Z,95.58
2022-12-27T03:28:42.644Z,95.59
2022-12-27T03:31:33.322Z,95.50
2022-12-27T03:34:26.488Z,95.57
2022-12-27T03:37:15.189Z,95.88
2022-12-27T03:40:04.085Z,95.68
2022-12-27T03:42:52.886Z,95.42
2022-12-27T03:45:21.659Z,95.75
2022-12-27T03:48:03.077Z,95.41
2022-12-27T03:50:54.598Z,95.67
2022-12-27T03:53:32.541Z,95.61
2022-12-27T03:55:59.255Z,95.64
2022-12-27T03:58:25.761Z,95.85
2022-12-27T04:00:52.206Z,96.20
2022-12-27T04:03:18.606Z,96.44
2022-12-27T04:05:44.981Z,96.24
2022-12-27T04:08:30.030Z,96.29
2022-12-27T04:11:15.031Z,96.81
2022-12-27T04:13:59.976Z,96.58
2022-12-27T04:16:44.875Z,96.62
2022-12-27T04:19:29.950Z,96.46
2022-12-27T04:22:14.732Z,96.43
2022-12-27T04:24:59.706Z,96.56
2022-12-27T04:27:44.957Z,96.34
2022-12-27T04:30:30.248Z,96.22
2022-12-27T04:33:15.217Z,96.57
2022-12-27T04:35:41.573Z,96.86
2022-12-27T04:38:08.068Z,96.40
2022-12-27T04:40:53.065Z,97.18
2022-12-27T04:43:37.966Z,97.13
2022-12-27T04:46:23.258Z,97.32
2022-12-27T04:49:08.185Z,97.37
2022-12-27T04:51:57.574Z,97.88
2022-12-27T04:54:42.901Z,97.58
2022-12-27T04:57:09.277Z,97.68
2022-12-27T04:59:54.321Z,97.70
2022-12-27T05:02:20.998Z,97.79
2022-12-27T05:04:48.427Z,97.72
2022-12-27T05:07:34.453Z,98.25
2022-12-27T05:10:21.795Z,98.35
2022-12-27T05:13:06.582Z,98.17
2022-12-27T05:15:32.981Z,98.81
2022-12-27T05:17:59.354Z,98.91
2022-12-27T05:20:25.710Z,98.20
2022-12-27T05:23:10.794Z,98.05
2022-12-27T05:25:41.858Z,98.48
2022-12-27T05:28:10.841Z,99.15
2022-12-27T05:30:39.231Z,99.34
2022-12-27T05:33:06.453Z,99.33
2022-12-27T05:35:34.417Z,99.30
2022-12-27T05:38:01.891Z,99.52
2022-12-27T05:40:28.406Z,99.25
2022-12-27T05:42:54.796Z,99.61
2022-12-27T05:45:21.375Z,99.73
2022-12-27T05:47:47.838Z,100.00
2022-12-27T05:50:14.267Z,99.82
2022-12-27T05:52:41.427Z,99.77
2022-12-27T05:55:08.562Z,99.95
2022-12-27T05:57:35.139Z,100.00
2022-12-27T06:00:01.914Z,100.00
2022-12-27T06:02:28.467Z,99.87
2022-12-27T06:04:55.032Z,100.00
2022-12-27T06:07:21.461Z,100.00
2022-12-27T06:09:47.915Z,100.00
2022-12-27T06:12:14.467Z,100.00
2022-12-27T06:14:41.501Z,100.00
2022-12-27T06:17:07.963Z,100.00
2022-12-27T06:19:34.509Z,100.00
2022-12-27T06:22:00.976Z,100.00
2022-12-27T06:24:27.695Z,100.00
2022-12-27T06:26:54.104Z,100.00
2022-12-27T06:29:20.445Z,100.00
2022-12-27T06:31:47.028Z,100.00
2022-12-27T06:34:13.505Z,100.00
2022-12-27T06:36:39.994Z,100.00
2022-12-27T06:39:06.467Z,100.00
2022-12-27T06:41:32.841Z,99.56
2022-12-27T06:43:59.302Z,99.36
2022-12-27T06:46:25.900Z,99.79
2022-12-27T06:48:52.747Z,99.65
2022-12-27T06:51:20.784Z,99.69
2022-12-27T06:53:47.986Z,99.66
2022-12-27T06:56:19.490Z,99.88
2022-12-27T06:58:48.111Z,99.74
2022-12-27T07:01:16.114Z,99.70
2022-12-27T07:03:42.981Z,99.41
2022-12-27T07:06:13.907Z,99.49
2022-12-27T07:08:40.459Z,99.52
2022-12-27T07:11:10.571Z,99.72
2022-12-27T07:13:42.147Z,99.56
2022-12-27T07:16:10.675Z,99.68
2022-12-27T07:18:37.594Z,99.67
2022-12-27T07:21:06.474Z,99.77
2022-12-27T07:23:33.541Z,99.68
2022-12-27T07:26:11.244Z,99.77
2022-12-27T07:28:38.432Z,99.50
2022-12-27T07:31:08.404Z,99.72
2022-12-27T07:33:35.740Z,99.77
2022-12-27T07:36:03.218Z,99.70
2022-12-27T07:38:29.762Z,99.11
2022-12-27T07:41:00.131Z,99.31
2022-12-27T07:43:29.590Z,99.55
2022-12-27T07:45:56.025Z,99.54
2022-12-27T07:48:22.494Z,99.45
2022-12-27T07:50:55.873Z,99.49
2022-12-27T07:53:22.569Z,99.59
2022-12-27T07:55:50.935Z,99.19
2022-12-27T07:58:18.723Z,99.39
2022-12-27T08:00:46.682Z,99.57
2022-12-27T08:03:13.073Z,99.69
2022-12-27T08:05:45.623Z,99.75
2022-12-27T08:08:15.088Z,99.33
2022-12-27T08:10:41.475Z,99.56
2022-12-27T08:13:07.835Z,99.56
2022-12-27T08:15:34.195Z,99.74
2022-12-27T08:18:00.568Z,100.00
2022-12-27T08:20:27.626Z,99.99
2022-12-27T08:22:53.970Z,99.81
2022-12-27T08:25:20.374Z,99.91
2022-12-27T08:27:46.703Z,99.80
2022-12-27T08:30:13.637Z,99.38
2022-12-27T08:32:40.056Z,99.66
2022-12-27T08:35:41.774Z,99.66
2022-12-27T08:37:54.110Z,99.23
2022-12-27T08:40:20.533Z,99.49
2022-12-27T08:42:47.174Z,99.49
2022-12-27T08:45:13.967Z,99.57
2022-12-27T08:47:40.439Z,99.68
2022-12-27T08:50:07.511Z,100.00
2022-12-27T08:52:34.117Z,99.73
2022-12-27T08:55:00.768Z,99.98
2022-12-27T08:57:27.092Z,99.90
2022-12-27T08:59:53.591Z,100.00
2022-12-27T09:02:20.139Z,99.96
2022-12-27T09:04:47.195Z,100.00
2022-12-27T09:07:13.587Z,100.00
2022-12-27T09:09:40.365Z,99.96
2022-12-27T09:12:09.229Z,100.00
2022-12-27T09:14:36.009Z,99.99
2022-12-27T09:17:02.389Z,100.00
2022-12-27T09:19:28.827Z,99.88
2022-12-27T09:21:55.234Z,99.65
2022-12-27T09:24:21.546Z,99.02
2022-12-27T09:26:48.040Z,98.77
2022-12-27T09:29:14.444Z,98.45
2022-12-27T09:31:40.968Z,98.79
2022-12-27T09:34:07.400Z,99.10
2022-12-27T09:36:33.806Z,99.57
2022-12-27T09:39:00.306Z,99.81
2022-12-27T09:42:47.663Z,99.85
2022-12-27T09:44:54.643Z,99.60
2022-12-27T09:47:34.527Z,99.42
2022-12-27T09:50:11.671Z,99.11
2022-12-27T09:52:46.359Z,98.69
2022-12-27T09:55:20.958Z,98.51
2022-12-27T09:57:48.275Z,98.17
2022-12-27T10:00:30.187Z,98.06
2022-12-27T10:03:05.151Z,97.78
2022-12-27T10:05:35.279Z,97.89
2022-12-27T10:08:19.421Z,97.63
2022-12-27T10:10:58.019Z,97.33
2022-12-27T10:13:33.555Z,96.91
2022-12-27T10:16:04.768Z,96.73
2022-12-27T10:18:49.945Z,96.29
2022-12-27T10:21:25.356Z,95.86
2022-12-27T10:23:54.871Z,95.85
2022-12-27T10:26:21.955Z,95.78
2022-12-27T10:29:22.134Z,95.14
2022-12-27T10:31:48.752Z,95.12
2022-12-27T10:34:18.029Z,94.64
2022-12-27T10:36:45.176Z,94.40
2022-12-27T10:39:25.652Z,94.06
2022-12-27T10:42:25.631Z,93.87
2022-12-27T10:44:51.944Z,93.24
2022-12-27T10:47:18.768Z,93.24
2022-12-27T10:50:03.321Z,92.54
2022-12-27T10:52:34.223Z,92.11
2022-12-27T10:55:00.624Z,91.56
2022-12-27T10:57:28.637Z,91.44
2022-12-27T11:00:13.277Z,91.16
2022-12-27T11:02:54.773Z,90.45
2022-12-27T11:05:24.681Z,89.96
2022-12-27T11:07:51.554Z,89.42
2022-12-27T11:10:23.824Z,88.60
2022-12-27T11:13:01.708Z,88.37
2022-12-27T11:15:30.524Z,87.79
2022-12-27T11:18:04.649Z,87.70
2022-12-27T11:20:37.507Z,87.13
2022-12-27T11:23:17.204Z,86.77
2022-12-27T11:26:01.593Z,87.05
2022-12-27T11:28:38.477Z,86.65
2022-12-27T11:31:16.815Z,86.65
2022-12-27T11:33:52.891Z,86.01
2022-12-27T11:36:29.366Z,86.27
2022-12-27T11:38:56.436Z,86.18
2022-12-27T11:41:36.231Z,86.25
2022-12-27T11:44:20.615Z,86.00
2022-12-27T11:46:59.359Z,86.39
2022-12-27T11:49:35.913Z,86.53
2022-12-27T11:52:26.556Z,86.46
2022-12-27T11:55:20.866Z,86.62
2022-12-27T11:58:17.938Z,86.88
2022-12-27T12:01:03.604Z,86.71
2022-12-27T12:04:03.525Z,86.75
2022-12-27T12:06:54.755Z,86.87
2022-12-27T12:09:28.263Z,86.79
2022-12-27T12:12:06.957Z,86.39
2022-12-27T12:15:20.856Z,86.60
2022-12-27T12:18:05.520Z,86.58
2022-12-27T12:21:03.224Z,86.44
2022-12-27T12:24:01.153Z,85.68
2022-12-27T12:26:43.736Z,85.32
2022-12-27T12:29:26.119Z,84.87
2022-12-27T12:32:09.309Z,85.16
2022-12-27T12:35:17.252Z,85.37
2022-12-27T12:37:59.790Z,85.49
2022-12-27T12:40:48.227Z,85.50
2022-12-27T12:43:43.749Z,85.81
2022-12-27T12:46:26.319Z,85.75
2022-12-27T12:49:30.475Z,85.62
2022-12-27T12:52:18.573Z,85.77
2022-12-27T12:55:15.634Z,85.84
2022-12-27T12:58:03.629Z,85.57
2022-12-27T13:00:42.495Z,85.47
2022-12-27T13:03:21.366Z,85.52
2022-12-27T13:05:57.546Z,85.58
2022-12-27T13:08:56.001Z,86.03
2022-12-27T13:11:25.784Z,86.11
2022-12-27T13:14:19.821Z,86.06
2022-12-27T13:16:55.471Z,85.70
2022-12-27T13:19:43.219Z,85.64
2022-12-27T13:22:40.233Z,86.03
2022-12-27T13:25:33.630Z,85.75
2022-12-27T13:28:28.000Z,85.52
2022-12-27T13:31:21.257Z,85.44
2022-12-27T13:34:05.969Z,85.41
2022-12-27T13:37:04.813Z,85.07
2022-12-27T13:39:34.228Z,85.05
2022-12-27T13:42:25.637Z,84.47
2022-12-27T13:45:24.497Z,84.68
2022-12-27T13:48:05.719Z,84.24
2022-12-27T13:50:55.133Z,84.11
2022-12-27T13:53:39.598Z,84.12
2022-12-27T13:56:52.732Z,83.77
2022-12-27T13:59:22.990Z,83.70
2022-12-27T14:02:17.127Z,83.66
2022-12-27T14:04:59.006Z,83.41
2022-12-27T14:07:25.832Z,83.21
2022-12-27T14:10:11.499Z,83.27
2022-12-27T14:12:53.433Z,83.15
2022-12-27T14:15:24.314Z,82.97
2022-12-27T14:18:01.198Z,82.76
2022-12-27T14:20:54.615Z,82.83
2022-12-27T14:23:37.341Z,82.57
2022-12-27T14:26:40.982Z,82.60
2022-12-27T14:29:13.391Z,82.20
2022-12-27T14:32:17.739Z,81.46
2022-12-27T14:35:02.752Z,80.43
2022-12-27T14:38:03.455Z,79.92
2022-12-27T14:41:17.747Z,79.40
2022-12-27T14:43:50.178Z,79.04
2022-12-27T14:46:35.286Z,78.82
2022-12-27T14:49:41.465Z,78.46
2022-12-27T14:52:22.197Z,78.10
2022-12-27T14:55:22.567Z,77.90
2022-12-27T14:58:06.743Z,78.16
2022-12-27T15:00:58.729Z,78.19
2022-12-27T15:03:47.357Z,78.61
2022-12-27T15:06:42.577Z,78.39
2022-12-27T15:09:19.849Z,78.56
2022-12-27T15:11:57.862Z,78.76
2022-12-27T15:14:42.951Z,78.84
2022-12-27T15:17:15.617Z,78.91
2022-12-27T15:19:48.122Z,78.98
2022-12-27T15:22:46.158Z,78.34
2022-12-27T15:25:24.399Z,77.60
2022-12-27T15:28:00.238Z,77.20
2022-12-27T15:30:55.057Z,77.62
2022-12-27T15:33:46.391Z,77.41
2022-12-27T15:36:17.996Z,77.51
2022-12-27T15:38:53.988Z,76.94
2022-12-27T15:41:47.466Z,76.84
2022-12-27T15:44:42.849Z,76.48
2022-12-27T15:47:38.572Z,76.57
2022-12-27T15:50:04.912Z,76.62
2022-12-27T15:52:34.241Z,76.74
2022-12-27T15:55:17.624Z,76.64
2022-12-27T15:57:44.050Z,76.61
2022-12-27T16:00:15.447Z,76.72
2022-12-27T16:02:48.130Z,76.84
2022-12-27T16:05:20.753Z,77.07
2022-12-27T16:07:47.687Z,77.07
2022-12-27T16:10:35.541Z,77.60
2022-12-27T16:13:05.055Z,78.14
2022-12-27T16:15:43.260Z,78.12
2022-12-27T16:18:31.233Z,78.41
2022-12-27T16:21:05.239Z,78.34
2022-12-27T16:23:46.851Z,78.36
2022-12-27T16:26:20.419Z,78.66
2022-12-27T16:28:57.605Z,78.38
2022-12-27T16:31:39.079Z,78.33
2022-12-27T16:34:29.026Z,78.47
2022-12-27T16:36:58.456Z,78.77
2022-12-27T16:39:46.192Z,79.00
2022-12-27T16:42:12.597Z,79.00
2022-12-27T16:44:53.574Z,78.94
2022-12-27T16:47:43.604Z,79.06
2022-12-27T16:50:22.032Z,79.27
2022-12-27T16:53:06.718Z,79.11
2022-12-27T16:55:54.836Z,79.52
2022-12-27T16:58:31.633Z,79.48
2022-12-27T17:01:00.257Z,79.29
2022-12-27T17:03:38.782Z,79.42
2022-12-27T17:06:34.462Z,79.70
2022-12-27T17:09:10.025Z,79.78
2022-12-27T17:11:41.217Z,79.98
2022-12-27T17:14:31.538Z,79.80
2022-12-27T17:17:13.895Z,79.91
2022-12-27T17:19:49.654Z,80.31
2022-12-27T17:22:17.839Z,80.48
2022-12-27T17:24:46.236Z,80.45
2022-12-27T17:27:24.585Z,81.06
2022-12-27T17:30:09.332Z,81.17
2022-12-27T17:32:38.484Z,81.48
2022-12-27T17:35:47.693Z,81.56
2022-12-27T17:38:41.067Z,81.41
2022-12-27T17:41:58.817Z,81.94
2022-12-27T17:44:40.518Z,82.50
2022-12-27T17:47:17.295Z,82.78
2022-12-27T17:49:43.942Z,83.06
2022-12-27T17:52:35.080Z,83.23
2022-12-27T17:55:36.082Z,83.25
2022-12-27T17:58:07.526Z,83.42
2022-12-27T18:00:38.192Z,83.49
2022-12-27T18:03:09.935Z,83.81
2022-12-27T18:05:41.615Z,84.03
2022-12-27T18:08:28.735Z,84.03
2022-12-27T18:10:56.862Z,84.41
2022-12-27T18:13:25.797Z,84.40
2022-12-27T18:15:52.992Z,85.00
2022-12-27T18:18:32.108Z,84.96
2022-12-27T18:21:04.168Z,85.08
2022-12-27T18:23:41.055Z,85.17
2022-12-27T18:26:15.607Z,85.70
2022-12-27T18:28:43.132Z,85.82
2022-12-27T18:31:25.212Z,85.75
2022-12-27T18:34:06.740Z,85.95
2022-12-27T18:36:49.600Z,85.72
2022-12-27T18:39:21.908Z,85.90
2022-12-27T18:41:50.867Z,86.17
2022-12-27T18:44:27.448Z,85.61
2022-12-27T18:46:57.563Z,85.93
2022-12-27T18:49:31.701Z,85.72
2022-12-27T18:51:58.628Z,85.98
2022-12-27T18:54:27.722Z,86.13
2022-12-27T18:56:56.203Z,86.06
2022-12-27T18:59:27.759Z,86.41
2022-12-27T19:01:59.510Z,86.28
2022-12-27T19:04:31.297Z,86.76
2022-12-27T19:07:00.574Z,86.47
2022-12-27T19:09:30.072Z,86.83
2022-12-27T19:12:03.146Z,86.97
2022-12-27T19:14:42.587Z,86.95
2022-12-27T19:17:22.804Z,86.79
2022-12-27T19:19:53.004Z,87.04
2022-12-27T19:22:36.499Z,87.05
2022-12-27T19:25:20.136Z,87.04
2022-12-27T19:28:02.779Z,87.11
2022-12-27T19:30:51.339Z,87.19
2022-12-27T19:33:17.700Z,87.38
2022-12-27T19:35:44.176Z,87.27
2022-12-27T19:38:21.159Z,87.57
2022-12-27T19:40:49.941Z,87.92
2022-12-27T19:43:17.190Z,88.13
2022-12-27T19:45:43.823Z,87.81
2022-12-27T19:48:11.126Z,87.61
2022-12-27T19:50:49.239Z,87.68
2022-12-27T19:53:19.356Z,87.64
2022-12-27T19:55:45.980Z,87.35
2022-12-27T19:58:21.661Z,87.78
2022-12-27T20:00:48.167Z,87.98
2022-12-27T20:03:15.354Z,87.81
2022-12-27T20:06:13.920Z,88.11
2022-12-27T20:08:36.494Z,88.08
2022-12-27T20:11:04.731Z,87.72
2022-12-27T20:13:31.603Z,87.85
2022-12-27T20:15:59.112Z,87.92
2022-12-27T20:18:25.793Z,88.14
2022-12-27T20:20:52.910Z,88.26
2022-12-27T20:23:20.391Z,88.30
2022-12-27T20:25:48.771Z,88.13
2022-12-27T20:28:17.081Z,88.34
2022-12-27T20:30:45.207Z,88.35
2022-12-27T20:33:11.606Z,88.43
2022-12-27T20:35:38.169Z,88.16
2022-12-27T20:38:05.165Z,88.81
2022-12-27T20:40:31.804Z,88.78
2022-12-27T20:42:58.303Z,88.84
2022-12-27T20:45:24.863Z,88.99
2022-12-27T20:47:51.201Z,88.85
2022-12-27T20:50:17.646Z,89.02
2022-12-27T20:52:44.134Z,89.07
2022-12-27T20:55:12.369Z,88.73
2022-12-27T20:57:39.506Z,88.82
2022-12-27T21:00:07.869Z,88.63
2022-12-27T21:02:34.890Z,88.55
2022-12-27T21:05:01.571Z,88.73
2022-12-27T21:07:27.995Z,88.69
2022-12-27T21:09:54.411Z,88.63
2022-12-27T21:12:20.865Z,88.70
2022-12-27T21:14:47.500Z,88.38
2022-12-27T21:17:13.869Z,88.31
2022-12-27T21:19:40.351Z,88.05
2022-12-27T21:22:06.846Z,87.82
2022-12-27T21:24:33.356Z,88.19
2022-12-27T21:26:59.798Z,88.33
2022-12-27T21:29:26.216Z,88.60
2022-12-27T21:31:53.369Z,88.56
2022-12-27T21:34:20.556Z,88.63
2022-12-27T21:36:50.834Z,88.50
2022-12-27T21:39:17.697Z,88.72
2022-12-27T21:41:44.073Z,88.87
2022-12-27T21:44:12.337Z,89.01
2022-12-27T21:46:41.511Z,89.08
2022-12-27T21:49:10.590Z,89.20
2022-12-27T21:51:38.409Z,89.33
2022-12-27T21:54:05.020Z,88.95
2022-12-27T21:56:31.733Z,89.50
2022-12-27T21:58:59.369Z,89.73
2022-12-27T22:01:28.780Z,89.66
2022-12-27T22:03:56.926Z,90.00
2022-12-27T22:06:29.012Z,89.97
2022-12-27T22:09:06.685Z,89.78
2022-12-27T22:11:34.467Z,89.71
2022-12-27T22:14:01.464Z,89.30
2022-12-27T22:16:30.999Z,89.52
2022-12-27T22:18:57.698Z,89.29
2022-12-27T22:21:35.251Z,89.11
2022-12-27T22:24:02.897Z,89.55
2022-12-27T22:26:32.867Z,89.35
2022-12-27T22:28:59.582Z,89.51
2022-12-27T22:31:30.673Z,89.95
2022-12-27T22:33:57.201Z,89.68
2022-12-27T22:36:25.314Z,89.83
2022-12-27T22:38:53.583Z,89.40
2022-12-27T22:41:28.994Z,89.35
2022-12-27T22:43:58.579Z,89.42
2022-12-27T22:46:26.733Z,89.57
2022-12-27T22:48:55.642Z,89.72
2022-12-27T22:51:27.068Z,89.90
2022-12-27T22:53:55.096Z,89.75
2022-12-27T22:56:24.408Z,89.61
2022-12-27T22:58:51.100Z,89.66
2022-12-27T23:01:19.108Z,89.45
2022-12-27T23:03:46.569Z,89.44
2022-12-27T23:06:13.158Z,89.51
2022-12-27T23:08:40.825Z,89.39
2022-12-27T23:11:11.307Z,88.94
2022-12-27T23:13:37.696Z,88.83
2022-12-27T23:16:05.065Z,88.42
2022-12-27T23:18:32.188Z,88.51
2022-12-27T23:21:21.381Z,88.47
2022-12-27T23:23:45.876Z,88.00
2022-12-27T23:26:17.368Z,88.12
2022-12-27T23:28:45.013Z,87.70
2022-12-27T23:31:13.909Z,87.81
2022-12-27T23:33:42.638Z,87.74
2022-12-27T23:36:10.386Z,87.47
2022-12-27T23:38:36.920Z,87.72
2022-12-27T23:41:05.814Z,87.38
2022-12-27T23:43:54.944Z,87.67
2022-12-27T23:46:28.920Z,87.43
2022-12-27T23:48:57.080Z,87.28
2022-12-27T23:51:24.034Z,86.97
2022-12-27T23:53:50.780Z,86.89
2022-12-27T23:56:23.328Z,86.96
2022-12-27T23:58:51.995Z,87.31
